Time;durP1;ratioP1;P1;durP2;ratioP2;P2;SDS_P1;SDS_P2;PMS_P1;PMS_P2;Temp;Humidity;BMP_temperature;BMP_pressure;BME280_temperature;BME280_humidity;BME280_pressure;Samples;Min_cycle;Max_cycle;Signal;HPM_P1;HPM_P2
2023/09/04 07:08:11;;;;;;;;;6.50;4.75;;;;;;;;5084734;27;13453;-79
2023/09/04 07:10:36;;;;;;;;;7.33;6.00;;;;;;;;5088096;28;9487;-73
2023/09/04 07:13:02;;;;;;;;;6.00;4.33;;;;;;;;5087237;28;8838;-77
2023/09/04 07:15:27;;;;;;;;;4.00;4.00;;;;;;;;5077030;28;8837;-76
2023/09/04 07:17:52;;;;;;;;;4.00;4.00;;;;;;;;5087659;28;8794;-75
2023/09/04 07:20:18;;;;;;;;;6.33;6.00;;;;;;;;5086130;28;8841;-72
2023/09/04 07:22:43;;;;;;;;;6.33;6.33;;;;;;;;5076503;28;8822;-81
2023/09/04 07:25:09;;;;;;;;;7.00;4.00;;;;;;;;5071217;28;8817;-79
2023/09/04 07:27:34;;;;;;;;;4.00;4.00;;;;;;;;5065435;28;8809;-78
2023/09/04 07:30:00;;;;;;;;;6.00;4.00;;;;;;;;5064348;28;11408;-77
2023/09/04 07:32:25;;;;;;;;;6.00;6.00;;;;;;;;5066690;28;8839;-72
2023/09/04 07:34:55;;;;;;;;;6.00;6.00;;;;;;;;5098653;23;8877;-73
2023/09/04 07:37:21;;;;;;;;;3.25;2.00;;;;;;;;5085567;28;8837;-71
2023/09/04 07:39:46;;;;;;;;;7.00;6.00;;;;;;;;5085442;28;8830;-72
2023/09/04 07:42:12;;;;;;;;;4.33;3.00;;;;;;;;5087548;28;8787;-71
2023/09/04 07:44:37;;;;;;;;;6.00;5.00;;;;;;;;5087606;28;8810;-70
2023/09/04 07:47:02;;;;;;;;;4.00;4.00;;;;;;;;5086478;28;9587;-70
2023/09/04 07:49:28;;;;;;;;;3.00;3.00;;;;;;;;5081600;28;8803;-70
2023/09/04 07:51:53;;;;;;;;;5.00;5.00;;;;;;;;5075173;28;8810;-70
2023/09/04 07:54:19;;;;;;;;;7.00;5.00;;;;;;;;5086772;28;8825;-71
2023/09/04 07:56:45;;;;;;;;;8.00;7.50;;;;;;;;5083847;28;8834;-69
2023/09/04 07:59:10;;;;;;;;;6.67;6.00;;;;;;;;5084140;28;8807;-71
2023/09/04 08:01:35;;;;;;;;;5.00;5.00;;;;;;;;5085609;28;8818;-69
2023/09/04 08:04:01;;;;;;;;;5.00;5.00;;;;;;;;5085562;28;8798;-70
2023/09/04 08:06:26;;;;;;;;;7.00;5.50;;;;;;;;5086509;28;8810;-71
2023/09/04 08:08:52;;;;;;;;;4.00;4.00;;;;;;;;5086722;28;8909;-71
2023/09/04 08:11:17;;;;;;;;;4.00;4.00;;;;;;;;5085751;28;8803;-80
2023/09/04 08:13:43;;;;;;;;;4.67;4.67;;;;;;;;5086747;28;8818;-68
2023/09/04 08:16:08;;;;;;;;;45.75;39.00;;;;;;;;5086385;28;8790;-71
2023/09/04 08:18:33;;;;;;;;;5.33;5.33;;;;;;;;5078636;28;8786;-74
2023/09/04 08:20:59;;;;;;;;;5.33;4.00;;;;;;;;5071167;28;8802;-74
2023/09/04 08:23:24;;;;;;;;;2.67;2.67;;;;;;;;5073448;28;8803;-73
2023/09/04 08:25:56;;;;;;;;;3.00;3.00;;;;;;;;5073083;28;8798;-71
2023/09/04 08:28:21;;;;;;;;;3.00;2.00;;;;;;;;5072882;28;8807;-73
2023/09/04 08:30:47;;;;;;;;;3.00;3.00;;;;;;;;5071007;28;8825;-73
2023/09/04 08:33:12;;;;;;;;;3.00;3.00;;;;;;;;5072664;28;9607;-72
2023/09/04 08:35:37;;;;;;;;;2.67;2.67;;;;;;;;5072513;28;8778;-73
2023/09/04 08:38:05;;;;;;;;;2.00;2.00;;;;;;;;5072415;28;8844;-69
2023/09/04 08:40:31;;;;;;;;;3.00;3.00;;;;;;;;5072609;28;8803;-71
2023/09/04 08:42:56;;;;;;;;;3.00;3.00;;;;;;;;5072563;28;8841;-70
2023/09/04 08:45:22;;;;;;;;;2.00;2.00;;;;;;;;5071484;28;8891;-70
2023/09/04 08:47:48;;;;;;;;;3.00;3.00;;;;;;;;5072554;28;8818;-73
2023/09/04 08:50:14;;;;;;;;;2.25;2.25;;;;;;;;5072357;28;8809;-71
2023/09/04 08:52:40;;;;;;;;;2.00;2.00;;;;;;;;5072592;28;8818;-71
2023/09/04 08:55:06;;;;;;;;;1.80;1.80;;;;;;;;5070814;28;8798;-78
2023/09/04 08:57:35;;;;;;;;;1.75;1.00;;;;;;;;5070452;28;8848;-71
2023/09/04 09:00:00;;;;;;;;;2.00;2.00;;;;;;;;5069455;28;8837;-71
2023/09/04 09:02:26;;;;;;;;;2.00;2.00;;;;;;;;5070765;28;8995;-72
2023/09/04 09:04:52;;;;;;;;;2.00;2.00;;;;;;;;5072760;28;8963;-71
2023/09/04 09:07:18;;;;;;;;;2.00;2.00;;;;;;;;5071071;28;8937;-71
2023/09/04 09:09:46;;;;;;;;;1.00;1.00;;;;;;;;5072413;28;8802;-71
2023/09/04 09:12:12;;;;;;;;;3.00;2.60;;;;;;;;5072618;28;8782;-71
2023/09/04 09:14:37;;;;;;;;;2.00;2.00;;;;;;;;5072489;28;8901;-71
2023/09/04 09:17:06;;;;;;;;;3.25;3.00;;;;;;;;5072382;28;8794;-72
2023/09/04 09:19:32;;;;;;;;;3.00;2.80;;;;;;;;5072395;28;8867;-72
2023/09/04 09:22:13;;;;;;;;;2.80;2.80;;;;;;;;5072315;28;8895;-73
2023/09/04 09:24:49;;;;;;;;;2.20;2.20;;;;;;;;5070897;28;8960;-71
2023/09/04 09:27:14;;;;;;;;;3.00;3.00;;;;;;;;5070427;28;8903;-72
2023/09/04 09:29:39;;;;;;;;;2.50;2.50;;;;;;;;5070884;28;8778;-72
2023/09/04 09:32:04;;;;;;;;;1.75;1.75;;;;;;;;5072145;28;8822;-72
2023/09/04 09:34:33;;;;;;;;;4.75;3.25;;;;;;;;5072401;28;8903;-71
2023/09/04 09:36:58;;;;;;;;;3.00;3.00;;;;;;;;5071965;28;8841;-71
2023/09/04 09:39:25;;;;;;;;;3.75;3.75;;;;;;;;5070699;28;8811;-71
2023/09/04 09:41:50;;;;;;;;;3.80;3.80;;;;;;;;5071765;28;8821;-72
2023/09/04 09:44:16;;;;;;;;;2.00;2.00;;;;;;;;5072021;28;8794;-70
2023/09/04 09:46:41;;;;;;;;;2.75;2.75;;;;;;;;5071562;28;8835;-71
2023/09/04 09:49:07;;;;;;;;;3.00;3.00;;;;;;;;5071719;28;8823;-71
2023/09/04 09:51:32;;;;;;;;;3.25;3.25;;;;;;;;5071387;28;8937;-71
2023/09/04 09:53:57;;;;;;;;;3.00;3.00;;;;;;;;5071438;28;8854;-71
2023/09/04 09:56:23;;;;;;;;;4.00;4.00;;;;;;;;5071457;28;8878;-73
2023/09/04 09:58:49;;;;;;;;;3.25;3.25;;;;;;;;5070624;28;8841;-74
2023/09/04 10:01:15;;;;;;;;;2.80;2.00;;;;;;;;5056093;28;8956;-76
2023/09/04 10:03:43;;;;;;;;;3.20;3.20;;;;;;;;5051469;28;8797;-73
2023/09/04 10:06:09;;;;;;;;;3.00;3.00;;;;;;;;5050845;28;8849;-73
2023/09/04 10:08:38;;;;;;;;;2.75;2.75;;;;;;;;5051181;28;8794;-72
2023/09/04 10:11:06;;;;;;;;;4.60;2.60;;;;;;;;5051244;28;8809;-75
2023/09/04 10:13:35;;;;;;;;;2.60;2.60;;;;;;;;5051273;28;8894;-74
2023/09/04 10:16:01;;;;;;;;;2.00;2.00;;;;;;;;5050593;28;8840;-76
2023/09/04 10:18:29;;;;;;;;;3.60;3.60;;;;;;;;5051168;28;8890;-76
2023/09/04 10:20:55;;;;;;;;;3.00;3.00;;;;;;;;5051005;28;8890;-76
2023/09/04 10:23:23;;;;;;;;;3.00;3.00;;;;;;;;5059927;28;8803;-73
2023/09/04 10:25:55;;;;;;;;;3.80;3.60;;;;;;;;5057575;28;8790;-72
2023/09/04 10:28:26;;;;;;;;;4.00;3.00;;;;;;;;5060582;28;9174;-72
2023/09/04 10:30:52;;;;;;;;;3.00;3.00;;;;;;;;5061516;28;8837;-72
2023/09/04 10:33:19;;;;;;;;;2.80;2.80;;;;;;;;5057113;22;9450;-70
2023/09/04 10:35:44;;;;;;;;;3.00;3.00;;;;;;;;5008118;28;8860;-70
2023/09/04 10:38:10;;;;;;;;;3.75;3.75;;;;;;;;5009075;28;8927;-71
2023/09/04 10:40:35;;;;;;;;;5.00;4.00;;;;;;;;5008976;28;8810;-70
2023/09/04 10:43:03;;;;;;;;;3.00;3.00;;;;;;;;5008060;28;8830;-70
2023/09/04 10:45:29;;;;;;;;;4.40;4.00;;;;;;;;5008910;28;8903;-70
2023/09/04 10:47:54;;;;;;;;;3.50;3.50;;;;;;;;5006725;28;8965;-71
2023/09/04 10:50:34;;;;;;;;;3.75;3.75;;;;;;;;5005854;28;8842;-71
2023/09/04 10:53:02;;;;;;;;;5.00;3.40;;;;;;;;5007403;28;8834;-71
2023/09/04 10:55:28;;;;;;;;;4.00;4.00;;;;;;;;5008231;28;8814;-71
2023/09/04 10:57:57;;;;;;;;;4.75;4.75;;;;;;;;5007267;28;8924;-72
2023/09/04 11:00:41;;;;;;;;;3.60;3.60;;;;;;;;5008749;28;8811;-73
2023/09/04 11:03:15;;;;;;;;;3.80;3.60;;;;;;;;5008751;28;8802;-72
2023/09/04 11:05:59;;;;;;;;;3.80;3.80;;;;;;;;5007268;28;8822;-71
2023/09/04 11:08:31;;;;;;;;;4.00;4.00;;;;;;;;5008684;28;8806;-72
2023/09/04 11:11:01;;;;;;;;;3.80;3.00;;;;;;;;5008936;28;8840;-73
2023/09/04 11:13:26;;;;;;;;;5.00;5.00;;;;;;;;5007743;28;8914;-71
2023/09/04 11:15:55;;;;;;;;;4.00;3.00;;;;;;;;5007356;28;8826;-72
2023/09/04 11:18:20;;;;;;;;;5.00;5.00;;;;;;;;5008286;28;8798;-71
2023/09/04 11:20:53;;;;;;;;;5.00;5.00;;;;;;;;5008536;28;8803;-74
2023/09/04 11:23:25;;;;;;;;;4.00;4.00;;;;;;;;5007817;28;8855;-71
2023/09/04 11:25:54;;;;;;;;;3.00;3.00;;;;;;;;5007868;28;8786;-73
2023/09/04 11:28:23;;;;;;;;;4.00;4.00;;;;;;;;5006624;28;8830;-73
2023/09/04 11:30:52;;;;;;;;;5.25;4.75;;;;;;;;5008269;28;8840;-72
2023/09/04 11:33:20;;;;;;;;;4.25;4.25;;;;;;;;5006850;28;9529;-72
2023/09/04 11:35:45;;;;;;;;;3.00;3.00;;;;;;;;5008640;28;8818;-72
2023/09/04 11:38:23;;;;;;;;;6.00;4.00;;;;;;;;5007031;28;8908;-75
2023/09/04 11:40:49;;;;;;;;;3.00;3.00;;;;;;;;5008731;28;8806;-75
2023/09/04 11:43:14;;;;;;;;;4.00;4.00;;;;;;;;5008466;28;8833;-74
2023/09/04 11:45:39;;;;;;;;;5.33;4.00;;;;;;;;5006825;28;8814;-73
2023/09/04 11:48:07;;;;;;;;;4.00;4.00;;;;;;;;5008653;28;8976;-71
2023/09/04 11:50:33;;;;;;;;;4.25;3.75;;;;;;;;5006907;28;8850;-74
2023/09/04 11:52:58;;;;;;;;;4.00;4.00;;;;;;;;5008706;28;8952;-74
2023/09/04 11:55:24;;;;;;;;;4.00;4.00;;;;;;;;5011404;28;8834;-74
2023/09/04 11:57:49;;;;;;;;;4.00;4.00;;;;;;;;5011635;28;9560;-74
2023/09/04 12:00:15;;;;;;;;;5.33;4.00;;;;;;;;5011742;28;8822;-74
2023/09/04 12:02:42;;;;;;;;;4.67;4.00;;;;;;;;5012047;28;8822;-76
2023/09/04 12:05:08;;;;;;;;;5.00;4.00;;;;;;;;5010535;28;8838;-74
2023/09/04 12:07:33;;;;;;;;;4.67;4.67;;;;;;;;5011679;28;8857;-73
2023/09/04 12:09:59;;;;;;;;;3.33;3.33;;;;;;;;5013529;28;9019;-74
2023/09/04 12:12:24;;;;;;;;;4.00;4.00;;;;;;;;5012530;28;9621;-74
2023/09/04 12:14:52;;;;;;;;;3.00;3.00;;;;;;;;5011168;28;8921;-74
2023/09/04 12:17:17;;;;;;;;;3.00;2.75;;;;;;;;5010573;28;8810;-74
2023/09/04 12:19:43;;;;;;;;;5.00;5.00;;;;;;;;5011461;28;8827;-73
2023/09/04 12:22:12;;;;;;;;;3.33;3.33;;;;;;;;5011568;28;9005;-74
2023/09/04 12:24:37;;;;;;;;;4.25;2.75;;;;;;;;5009892;28;8811;-73
2023/09/04 12:27:03;;;;;;;;;4.67;3.00;;;;;;;;5010087;28;8862;-73
2023/09/04 12:29:29;;;;;;;;;3.25;3.00;;;;;;;;5011700;28;8825;-72
2023/09/04 12:31:54;;;;;;;;;4.00;4.00;;;;;;;;5011711;28;8807;-73
2023/09/04 12:34:28;;;;;;;;;4.00;4.00;;;;;;;;5047571;22;9042;-71
2023/09/04 12:36:57;;;;;;;;;3.00;3.00;;;;;;;;5052668;28;8813;-73
2023/09/04 12:39:23;;;;;;;;;2.00;2.00;;;;;;;;5051611;28;8798;-72
2023/09/04 12:41:55;;;;;;;;;4.67;3.00;;;;;;;;5041252;28;8832;-73
2023/09/04 12:44:20;;;;;;;;;3.75;3.25;;;;;;;;5044694;28;8809;-74
2023/09/04 12:46:45;;;;;;;;;5.00;4.00;;;;;;;;5046707;28;8882;-72
2023/09/04 12:49:11;;;;;;;;;3.67;3.67;;;;;;;;5041436;28;8818;-75
2023/09/04 12:51:36;;;;;;;;;5.00;5.00;;;;;;;;5043579;28;8801;-71
2023/09/04 12:54:01;;;;;;;;;3.00;3.00;;;;;;;;5041664;28;9530;-72
2023/09/04 12:56:26;;;;;;;;;4.67;3.67;;;;;;;;5042157;28;8907;-70
2023/09/04 12:58:52;;;;;;;;;3.67;3.67;;;;;;;;5037695;28;8915;-71
2023/09/04 13:01:17;;;;;;;;;3.67;3.67;;;;;;;;5043191;28;8794;-70
2023/09/04 13:03:43;;;;;;;;;4.00;4.00;;;;;;;;5041414;28;8917;-71
2023/09/04 13:06:08;;;;;;;;;5.33;4.00;;;;;;;;5042983;28;8792;-71
2023/09/04 13:08:33;;;;;;;;;5.00;5.00;;;;;;;;5041001;28;8862;-70
2023/09/04 13:10:59;;;;;;;;;4.00;4.00;;;;;;;;5042032;28;8809;-69
2023/09/04 13:13:24;;;;;;;;;4.00;4.00;;;;;;;;5042417;28;8792;-71
2023/09/04 13:15:49;;;;;;;;;3.00;3.00;;;;;;;;5040786;28;8788;-70
2023/09/04 13:18:14;;;;;;;;;4.33;4.33;;;;;;;;5042562;28;8860;-71
2023/09/04 13:20:40;;;;;;;;;4.00;4.00;;;;;;;;5038854;28;8785;-71
2023/09/04 13:23:05;;;;;;;;;4.00;4.00;;;;;;;;5045737;28;8795;-71
2023/09/04 13:25:30;;;;;;;;;3.67;3.00;;;;;;;;5047342;28;8829;-72
2023/09/04 13:27:56;;;;;;;;;3.00;3.00;;;;;;;;5047485;28;8978;-74
2023/09/04 13:30:21;;;;;;;;;4.00;4.00;;;;;;;;5051892;28;8824;-76
2023/09/04 13:32:46;;;;;;;;;3.67;3.67;;;;;;;;5049357;28;8797;-74
2023/09/04 13:35:11;;;;;;;;;3.00;3.00;;;;;;;;5031479;28;8897;-73
2023/09/04 13:37:37;;;;;;;;;8.33;8.00;;;;;;;;5037024;28;8821;-74
2023/09/04 13:40:03;;;;;;;;;6.00;6.00;;;;;;;;5051734;28;8793;-77
2023/09/04 13:42:29;;;;;;;;;4.00;3.50;;;;;;;;5051723;28;8801;-80
2023/09/04 13:44:54;;;;;;;;;5.00;4.00;;;;;;;;5051467;28;8804;-73
2023/09/04 13:47:24;;;;;;;;;7.00;6.67;;;;;;;;5044063;28;9548;-74
2023/09/04 13:49:50;;;;;;;;;5.00;3.75;;;;;;;;5041939;28;8806;-74
2023/09/04 13:52:15;;;;;;;;;3.67;3.67;;;;;;;;5042306;28;8910;-74
2023/09/04 13:54:42;;;;;;;;;7.00;5.33;;;;;;;;5039890;28;8837;-73
2023/09/04 13:57:07;;;;;;;;;5.25;4.00;;;;;;;;5040295;28;8824;-73
2023/09/04 13:59:32;;;;;;;;;4.00;4.00;;;;;;;;5039843;28;8792;-75
2023/09/04 14:01:58;;;;;;;;;5.67;4.33;;;;;;;;5041415;28;8805;-74
2023/09/04 14:04:23;;;;;;;;;5.67;5.67;;;;;;;;5041844;28;8816;-75
2023/09/04 14:06:49;;;;;;;;;4.00;4.00;;;;;;;;5041867;28;8859;-74
2023/09/04 14:09:14;;;;;;;;;4.00;4.00;;;;;;;;5039777;28;8818;-74
2023/09/04 14:11:40;;;;;;;;;4.00;4.00;;;;;;;;5040777;28;8778;-74
2023/09/04 14:14:05;;;;;;;;;5.00;3.33;;;;;;;;5041159;28;8800;-74
2023/09/04 14:16:30;;;;;;;;;4.00;4.00;;;;;;;;5033626;28;8844;-73
2023/09/04 14:18:56;;;;;;;;;10.33;9.00;;;;;;;;5031074;28;8815;-75
2023/09/04 14:21:21;;;;;;;;;4.00;4.00;;;;;;;;5032095;28;9523;-73
2023/09/04 14:23:47;;;;;;;;;4.00;4.00;;;;;;;;5049495;28;8820;-72
2023/09/04 14:26:12;;;;;;;;;4.33;4.33;;;;;;;;5033780;28;8897;-72
2023/09/04 14:28:37;;;;;;;;;4.67;4.67;;;;;;;;5046290;28;8904;-73
2023/09/04 14:31:02;;;;;;;;;5.00;5.00;;;;;;;;5042028;28;8813;-73
2023/09/04 14:33:28;;;;;;;;;10.67;10.67;;;;;;;;5038817;28;8828;-73
2023/09/04 14:36:00;;;;;;;;;4.00;4.00;;;;;;;;5038276;28;8796;-76
2023/09/04 14:38:25;;;;;;;;;2.00;2.00;;;;;;;;5041261;28;9531;-76
2023/09/04 14:40:51;;;;;;;;;5.00;5.00;;;;;;;;5041293;28;8808;-75
2023/09/04 14:43:16;;;;;;;;;9.00;9.00;;;;;;;;5040620;28;8792;-76
2023/09/04 14:45:41;;;;;;;;;6.67;6.00;;;;;;;;5040769;28;8840;-76
2023/09/04 14:48:07;;;;;;;;;3.33;3.33;;;;;;;;5041060;28;8841;-75
2023/09/04 14:50:32;;;;;;;;;9.67;9.67;;;;;;;;5040737;28;8807;-75
2023/09/04 14:52:57;;;;;;;;;3.33;3.33;;;;;;;;5040953;28;9522;-75
2023/09/04 14:55:23;;;;;;;;;5.00;5.00;;;;;;;;5040794;28;8813;-76
2023/09/04 14:57:52;;;;;;;;;6.67;5.00;;;;;;;;5039714;28;8943;-76
2023/09/04 15:00:17;;;;;;;;;4.00;4.00;;;;;;;;5038073;28;8816;-76
2023/09/04 15:02:42;;;;;;;;;3.67;3.67;;;;;;;;5037712;28;8809;-78
2023/09/04 15:05:08;;;;;;;;;5.00;4.67;;;;;;;;5040614;28;8925;-77
2023/09/04 15:07:33;;;;;;;;;4.00;4.00;;;;;;;;5038730;28;8832;-78
2023/09/04 15:09:58;;;;;;;;;7.33;6.33;;;;;;;;5039709;28;8829;-77
2023/09/04 15:12:23;;;;;;;;;6.33;5.33;;;;;;;;5040198;28;8819;-77
2023/09/04 15:14:49;;;;;;;;;5.33;5.33;;;;;;;;5039069;28;8813;-73
2023/09/04 15:17:14;;;;;;;;;5.67;5.67;;;;;;;;5041535;28;9551;-79
2023/09/04 15:19:39;;;;;;;;;4.00;2.67;;;;;;;;5049473;28;8894;-80
2023/09/04 15:22:04;;;;;;;;;4.33;4.33;;;;;;;;5050148;28;8924;-77
2023/09/04 15:24:30;;;;;;;;;9.00;9.00;;;;;;;;5049209;28;9528;-73
2023/09/04 15:26:55;;;;;;;;;13.33;10.33;;;;;;;;5029169;28;8847;-78
2023/09/04 15:29:20;;;;;;;;;9.00;8.33;;;;;;;;5032010;28;8838;-80
2023/09/04 15:31:45;;;;;;;;;5.00;4.00;;;;;;;;5041601;28;8808;-79
2023/09/04 15:34:11;;;;;;;;;9.00;7.67;;;;;;;;5045627;28;9049;-80
2023/09/04 15:36:36;;;;;;;;;3.00;3.00;;;;;;;;5045976;28;8808;-75
